createdAt,value
2018-05-15T00:03:10.142Z,16.70
2018-05-15T00:08:12.859Z,16.70
2018-05-15T00:13:16.241Z,16.60
2018-05-15T00:18:18.901Z,16.60
2018-05-15T00:23:21.861Z,16.50
2018-05-15T00:28:24.815Z,16.50
2018-05-15T00:33:27.570Z,16.40
2018-05-15T00:38:30.462Z,16.40
2018-05-15T00:43:33.191Z,16.30
2018-05-15T00:48:36.028Z,16.30
2018-05-15T00:53:39.395Z,16.20
2018-05-15T00:58:42.036Z,16.20
2018-05-15T01:03:44.729Z,16.20
2018-05-15T01:08:47.348Z,16.10
2018-05-15T01:13:50.027Z,16.10
2018-05-15T01:18:52.633Z,16.00
2018-05-15T01:23:55.976Z,15.90
2018-05-15T01:28:58.615Z,15.90
2018-05-15T01:34:01.313Z,15.90
2018-05-15T01:39:04.037Z,15.90
2018-05-15T01:44:06.742Z,15.80
2018-05-15T01:49:09.468Z,15.80
2018-05-15T01:54:12.109Z,15.70
2018-05-15T01:59:14.726Z,15.70
2018-05-15T02:04:18.236Z,15.60
2018-05-15T02:09:20.891Z,15.60
2018-05-15T02:14:25.106Z,15.50
2018-05-15T02:19:27.842Z,15.50
2018-05-15T02:24:30.489Z,15.50
2018-05-15T02:29:33.153Z,15.40
2018-05-15T02:34:36.514Z,15.40
2018-05-15T02:39:39.125Z,15.30
2018-05-15T02:44:41.750Z,15.30
2018-05-15T02:49:45.195Z,15.30
2018-05-15T02:54:48.182Z,15.20
2018-05-15T02:59:51.549Z,15.20
2018-05-15T03:04:54.305Z,15.20
2018-05-15T03:09:57.051Z,15.20
2018-05-15T03:14:59.773Z,15.20
2018-05-15T03:20:02.397Z,15.20
2018-05-15T03:25:05.811Z,15.20
2018-05-15T03:30:09.157Z,15.10
2018-05-15T03:35:12.639Z,15.10
2018-05-15T03:40:15.292Z,15.10
2018-05-15T03:45:17.942Z,15.10
2018-05-15T03:50:20.650Z,15.10
2018-05-15T03:55:23.361Z,15.10
2018-05-15T04:00:38.464Z,15.10
2018-05-15T04:05:54.771Z,15.10
2018-05-15T04:10:58.266Z,15.10
2018-05-15T04:16:00.852Z,15.00
2018-05-15T04:21:03.604Z,15.10
2018-05-15T04:26:06.477Z,15.00
2018-05-15T04:31:09.154Z,15.00
2018-05-15T04:36:11.770Z,15.00
2018-05-15T04:41:14.448Z,15.00
2018-05-15T04:46:17.090Z,15.00
2018-05-15T04:51:19.678Z,15.00
2018-05-15T04:56:22.362Z,15.10
2018-05-15T05:01:25.797Z,15.20
2018-05-15T05:06:28.463Z,15.20
2018-05-15T05:11:31.137Z,15.30
2018-05-15T05:16:35.240Z,15.50
2018-05-15T05:21:37.838Z,15.50
2018-05-15T05:26:40.411Z,15.60
2018-05-15T05:31:43.021Z,15.80
2018-05-15T05:36:45.650Z,16.00
2018-05-15T05:41:49.043Z,16.20
2018-05-15T05:46:51.675Z,16.40
2018-05-15T05:51:55.221Z,16.60
2018-05-15T05:56:57.747Z,16.70
2018-05-15T06:02:01.880Z,17.00
2018-05-15T06:07:04.515Z,17.10
2018-05-15T06:12:07.745Z,17.30
2018-05-15T06:17:10.334Z,17.50
2018-05-15T06:22:13.770Z,17.80
2018-05-15T06:27:17.143Z,18.10
2018-05-15T06:32:19.801Z,18.10
2018-05-15T06:37:22.742Z,18.30
2018-05-15T06:42:25.320Z,18.50
2018-05-15T06:47:28.056Z,18.70
2018-05-15T06:52:30.669Z,19.00
2018-05-15T06:57:33.274Z,19.20
2018-05-15T07:02:36.855Z,19.30
2018-05-15T07:07:39.505Z,19.50
2018-05-15T07:12:42.068Z,19.70
2018-05-15T07:17:44.796Z,19.80
2018-05-15T07:22:48.148Z,20.10
2018-05-15T07:27:51.574Z,20.30
2018-05-15T07:32:54.293Z,20.40
2018-05-15T07:37:56.889Z,20.60
2018-05-15T07:42:59.489Z,20.90
2018-05-15T07:48:02.123Z,21.00
2018-05-15T07:53:04.832Z,21.20
2018-05-15T07:58:07.441Z,21.50
2018-05-15T08:03:10.058Z,21.70
2018-05-15T08:08:12.584Z,21.80
2018-05-15T08:13:15.264Z,22.00
2018-05-15T08:18:17.971Z,22.30
2018-05-15T08:23:20.542Z,22.50
2018-05-15T08:28:23.337Z,22.70
2018-05-15T08:33:26.014Z,22.80
2018-05-15T08:38:28.626Z,22.80
2018-05-15T08:43:31.429Z,22.90
2018-05-15T08:48:34.109Z,22.90
2018-05-15T08:53:37.330Z,23.10
2018-05-15T08:58:40.056Z,23.20
2018-05-15T09:03:42.707Z,23.40
2018-05-15T09:08:45.332Z,23.60
2018-05-15T09:13:48.812Z,23.80
2018-05-15T09:18:51.474Z,24.00
2018-05-15T09:23:54.177Z,24.10
2018-05-15T09:28:57.648Z,24.30
2018-05-15T09:34:00.311Z,24.40
2018-05-15T09:39:02.997Z,24.60
2018-05-15T09:44:05.687Z,24.80
2018-05-15T09:49:08.410Z,24.90
2018-05-15T09:54:11.137Z,25.00
2018-05-15T09:59:14.611Z,25.00
2018-05-15T10:04:18.169Z,25.00
2018-05-15T10:09:20.745Z,24.90
2018-05-15T10:14:23.396Z,24.80
2018-05-15T10:19:26.055Z,24.80
2018-05-15T10:24:28.836Z,24.80
2018-05-15T10:29:32.387Z,24.90
2018-05-15T10:34:35.045Z,24.70
2018-05-15T10:39:37.658Z,24.60
2018-05-15T10:44:41.261Z,24.70
2018-05-15T10:49:43.879Z,24.70
2018-05-15T10:54:46.496Z,24.80
2018-05-15T10:59:49.104Z,24.90
2018-05-15T11:04:51.724Z,25.10
2018-05-15T11:09:54.564Z,25.30
2018-05-15T11:14:58.047Z,25.40
2018-05-15T11:20:12.651Z,25.50
2018-05-15T11:25:15.334Z,25.40
2018-05-15T11:30:18.063Z,25.30
2018-05-15T11:35:20.730Z,25.00
2018-05-15T11:40:24.634Z,25.00
2018-05-15T11:45:27.945Z,25.00
2018-05-15T11:50:31.285Z,25.00
2018-05-15T11:55:35.295Z,25.00
2018-05-15T12:00:35.906Z,25.00
2018-05-15T12:05:39.779Z,25.00
2018-05-15T12:10:42.511Z,25.00
2018-05-15T12:15:46.570Z,24.90
2018-05-15T12:20:50.286Z,24.80
2018-05-15T12:25:54.527Z,24.80
2018-05-15T12:30:57.390Z,24.80
2018-05-15T12:36:00.059Z,24.80
2018-05-15T12:41:02.732Z,24.90
2018-05-15T12:46:05.502Z,25.00
2018-05-15T12:51:09.137Z,25.00
2018-05-15T12:56:11.806Z,25.10
2018-05-15T13:01:14.549Z,25.10
2018-05-15T13:06:17.178Z,25.00
2018-05-15T13:11:20.402Z,24.90
2018-05-15T13:16:23.083Z,24.90
2018-05-15T13:21:25.721Z,25.00
2018-05-15T13:26:28.326Z,25.10
2018-05-15T13:31:30.952Z,25.10
2018-05-15T13:36:33.683Z,25.20
2018-05-15T13:41:37.230Z,25.30
2018-05-15T13:46:39.921Z,25.30
2018-05-15T13:51:42.565Z,25.20
2018-05-15T13:56:45.340Z,25.20
2018-05-15T14:01:48.782Z,25.20
2018-05-15T14:06:51.471Z,25.20
2018-05-15T14:11:54.159Z,25.10
2018-05-15T14:16:56.741Z,25.00
2018-05-15T14:22:00.169Z,25.00
2018-05-15T14:27:03.158Z,24.90
2018-05-15T14:32:05.809Z,24.90
2018-05-15T14:37:08.828Z,24.80
2018-05-15T14:42:23.296Z,24.60
2018-05-15T14:47:25.870Z,24.30
2018-05-15T14:52:29.304Z,23.70
2018-05-15T14:57:31.877Z,23.60
2018-05-15T15:02:34.437Z,23.30
2018-05-15T15:07:37.010Z,23.00
2018-05-15T15:12:39.567Z,22.80
2018-05-15T15:17:42.232Z,22.50
2018-05-15T15:22:45.569Z,22.30
2018-05-15T15:27:48.268Z,22.10
2018-05-15T15:32:50.874Z,21.80
2018-05-15T15:37:53.532Z,21.60
2018-05-15T15:42:57.063Z,21.30
2018-05-15T15:48:00.176Z,21.10
2018-05-15T15:53:04.338Z,20.90
2018-05-15T15:58:08.057Z,20.70
2018-05-15T16:03:12.039Z,20.50
2018-05-15T16:08:15.164Z,20.30
2018-05-15T16:13:18.073Z,20.20
2018-05-15T16:18:22.643Z,20.00
2018-05-15T16:23:25.788Z,19.90
2018-05-15T16:28:30.976Z,19.80
2018-05-15T16:33:34.413Z,19.60
2018-05-15T16:38:39.340Z,19.50
2018-05-15T16:43:42.757Z,19.40
2018-05-15T16:48:48.313Z,19.30
2018-05-15T16:53:53.323Z,19.20
2018-05-15T16:58:56.998Z,19.10
2018-05-15T17:04:04.574Z,19.00
2018-05-15T17:09:09.856Z,18.90
2018-05-15T17:14:18.149Z,18.90
2018-05-15T17:19:21.140Z,18.80
2018-05-15T17:24:23.870Z,18.70
2018-05-15T17:29:26.726Z,18.60
2018-05-15T17:34:29.802Z,18.50
2018-05-15T17:39:35.305Z,18.40
2018-05-15T17:44:38.909Z,18.30
2018-05-15T17:49:43.483Z,18.20
2018-05-15T17:54:47.168Z,18.10
2018-05-15T17:59:51.905Z,18.00
2018-05-15T18:04:55.960Z,17.90
2018-05-15T18:09:59.331Z,17.90
2018-05-15T18:15:05.741Z,17.80
2018-05-15T18:20:09.403Z,17.70
2018-05-15T18:25:13.046Z,17.60
2018-05-15T18:30:16.884Z,17.50
2018-05-15T18:35:19.971Z,17.40
2018-05-15T18:45:29.850Z,17.30
2018-05-15T18:50:33.010Z,17.20
2018-05-15T18:55:35.865Z,17.10
2018-05-15T19:00:42.979Z,17.10
2018-05-15T19:05:46.221Z,17.00
2018-05-15T19:10:51.153Z,16.90
2018-05-15T19:15:54.889Z,16.70
2018-05-15T19:20:59.625Z,16.70
2018-05-15T19:26:03.666Z,16.60
2018-05-15T19:31:06.813Z,16.60
2018-05-15T19:36:11.369Z,16.50
2018-05-15T19:41:19.947Z,16.50
2018-05-15T19:46:22.941Z,16.40
2018-05-15T19:51:26.277Z,16.40
2018-05-15T19:56:29.268Z,16.30
2018-05-15T20:01:31.881Z,16.30
2018-05-15T20:06:34.595Z,16.20
2018-05-15T20:11:39.567Z,16.10
2018-05-15T20:16:43.732Z,16.10
2018-05-15T20:21:48.082Z,16.10
2018-05-15T20:26:50.857Z,16.00
2018-05-15T20:31:54.247Z,16.00
2018-05-15T20:36:57.750Z,15.90
2018-05-15T20:42:03.922Z,15.80
2018-05-15T20:47:06.555Z,15.80
2018-05-15T20:52:09.663Z,15.70
2018-05-15T20:57:12.637Z,15.70
2018-05-15T21:02:15.694Z,15.70
2018-05-15T21:07:18.497Z,15.60
2018-05-15T21:12:21.527Z,15.60
2018-05-15T21:17:24.820Z,15.60
2018-05-15T21:22:27.614Z,15.50
2018-05-15T21:27:30.466Z,15.50
2018-05-15T21:32:35.151Z,15.40
2018-05-15T21:37:38.596Z,15.40
2018-05-15T21:42:41.576Z,15.40
2018-05-15T21:47:45.584Z,15.40
2018-05-15T21:52:48.503Z,15.30
2018-05-15T21:57:51.277Z,15.30
2018-05-15T22:02:54.202Z,15.30
2018-05-15T22:07:57.180Z,15.20
2018-05-15T22:13:11.982Z,15.20
2018-05-15T22:18:28.306Z,15.20
2018-05-15T22:23:30.708Z,15.20
2018-05-15T22:33:41.310Z,15.10
2018-05-15T22:38:44.383Z,15.10
2018-05-15T22:43:47.353Z,15.10
2018-05-15T22:48:51.029Z,15.00
2018-05-15T22:53:54.196Z,15.00
2018-05-15T22:58:57.646Z,15.00
2018-05-15T23:04:04.024Z,15.00
2018-05-15T23:09:10.449Z,14.90
2018-05-15T23:14:13.200Z,14.90
2018-05-15T23:19:16.187Z,14.90
2018-05-15T23:24:18.906Z,14.90
2018-05-15T23:29:22.308Z,14.80
2018-05-15T23:34:25.603Z,14.80
2018-05-15T23:39:28.599Z,14.80
2018-05-15T23:44:31.756Z,14.80
2018-05-15T23:49:35.228Z,14.80
2018-05-15T23:54:38.623Z,14.70
2018-05-15T23:59:42.105Z,14.70
